Time;durP1;ratioP1;P1;durP2;ratioP2;P2;SDS_P1;SDS_P2;PMS_P1;PMS_P2;Temp;Humidity;BMP_temperature;BMP_pressure;BME280_temperature;BME280_humidity;BME280_pressure;Samples;Min_cycle;Max_cycle;Signal;HPM_P1;HPM_P2
2022/05/08 00:00:31;;;;;;;6.85;5.38;;;16.70;99.90;;;;;;5074845;28;20218;-72
2022/05/08 00:02:57;;;;;;;4.97;3.90;;;16.60;99.90;;;;;;5075340;28;20214;-72
2022/05/08 00:05:24;;;;;;;6.88;4.60;;;16.80;99.90;;;;;;5057741;28;20539;-72
2022/05/08 00:07:49;;;;;;;7.30;4.63;;;16.60;99.90;;;;;;5075095;28;20221;-72
2022/05/08 00:10:15;;;;;;;7.72;5.38;;;16.60;99.90;;;;;;5074623;28;20199;-72
2022/05/08 00:12:40;;;;;;;5.85;3.83;;;16.80;99.90;;;;;;5074681;28;20598;-72
2022/05/08 00:15:06;;;;;;;6.20;3.78;;;16.90;99.90;;;;;;5075267;28;20331;-73
2022/05/08 00:17:34;;;;;;;7.28;3.70;;;17.00;99.90;;;;;;5076001;28;20668;-72
2022/05/08 00:20:02;;;;;;;6.13;4.22;;;17.10;99.90;;;;;;5074402;28;20199;-72
2022/05/08 00:22:27;;;;;;;4.90;3.67;;;17.10;99.90;;;;;;5075060;28;20202;-72
2022/05/08 00:24:53;;;;;;;8.13;4.45;;;17.10;99.90;;;;;;5074870;28;20199;-72
2022/05/08 00:27:19;;;;;;;7.40;5.43;;;17.10;99.90;;;;;;5072935;28;20207;-72
2022/05/08 00:29:44;;;;;;;5.35;3.58;;;17.10;99.90;;;;;;5074083;28;20174;-72
2022/05/08 00:32:10;;;;;;;6.18;4.30;;;17.10;99.90;;;;;;5074820;28;20574;-72
2022/05/08 00:34:35;;;;;;;5.72;4.28;;;17.10;99.90;;;;;;5056595;28;20203;-72
2022/05/08 00:37:01;;;;;;;6.35;4.57;;;17.00;99.90;;;;;;5056903;28;20211;-72
2022/05/08 00:39:26;;;;;;;7.63;4.30;;;16.70;99.90;;;;;;5056330;28;20286;-72
2022/05/08 00:41:51;;;;;;;8.82;4.45;;;16.70;99.90;;;;;;5075491;28;20238;-72
2022/05/08 00:44:17;;;;;;;5.65;3.50;;;16.70;99.90;;;;;;5073964;28;20203;-73
2022/05/08 00:46:43;;;;;;;4.43;3.08;;;16.60;99.90;;;;;;5072268;28;20199;-73
2022/05/08 00:49:08;;;;;;;4.38;3.15;;;16.70;99.90;;;;;;5073854;28;20274;-73
2022/05/08 00:51:35;;;;;;;3.47;2.55;;;16.60;99.90;;;;;;5074063;28;20257;-72
2022/05/08 00:54:03;;;;;;;4.13;2.80;;;16.50;99.90;;;;;;5074388;28;20186;-71
2022/05/08 00:56:28;;;;;;;4.57;2.40;;;16.50;99.90;;;;;;5062857;28;20187;-72
2022/05/08 00:58:55;;;;;;;2.72;1.98;;;16.50;99.90;;;;;;5074678;28;20742;-72
2022/05/08 01:01:21;;;;;;;2.17;1.98;;;16.40;99.90;;;;;;5074533;28;20211;-73
2022/05/08 01:03:47;;;;;;;1.75;1.65;;;16.40;99.90;;;;;;5057070;28;20202;-72
2022/05/08 01:06:17;;;;;;;1.95;1.80;;;16.30;99.90;;;;;;5074745;28;20202;-73
2022/05/08 01:08:45;;;;;;;7.43;4.20;;;16.40;99.90;;;;;;5074206;28;20581;-73
2022/05/08 01:11:11;;;;;;;3.47;2.05;;;16.50;99.90;;;;;;5074675;28;20207;-73
2022/05/08 01:13:38;;;;;;;2.45;1.92;;;16.40;99.90;;;;;;5075102;28;20203;-72
2022/05/08 01:16:08;;;;;;;3.63;1.70;;;16.30;99.90;;;;;;5074595;28;20199;-72
2022/05/08 01:18:34;;;;;;;4.07;2.75;;;16.20;99.90;;;;;;5055940;28;20210;-73
2022/05/08 01:20:59;;;;;;;2.53;1.80;;;16.20;99.90;;;;;;5074968;28;20218;-73
2022/05/08 01:23:25;;;;;;;1.52;1.33;;;16.10;99.90;;;;;;5074818;28;20278;-72
2022/05/08 01:25:57;;;;;;;1.98;1.65;;;15.90;99.90;;;;;;5055986;28;20195;-73
2022/05/08 01:28:23;;;;;;;4.13;1.83;;;15.90;99.90;;;;;;5073457;28;20226;-73
2022/05/08 01:30:52;;;;;;;3.60;2.45;;;15.90;99.90;;;;;;5074189;28;20199;-72
2022/05/08 01:33:18;;;;;;;2.17;1.75;;;15.70;99.90;;;;;;5075062;28;20261;-72
2022/05/08 01:35:44;;;;;;;2.88;1.50;;;15.70;99.90;;;;;;5075141;28;20652;-73
2022/05/08 01:38:13;;;;;;;4.90;2.60;;;15.80;99.90;;;;;;5069013;28;20203;-73
2022/05/08 01:40:40;;;;;;;5.75;2.92;;;15.80;99.90;;;;;;5076292;28;20218;-73
2022/05/08 01:43:06;;;;;;;5.50;2.60;;;15.90;99.90;;;;;;5058761;28;20223;-73
2022/05/08 01:45:31;;;;;;;6.93;2.83;;;15.70;99.90;;;;;;5058203;28;20293;-73
2022/05/08 01:50:41;;;;;;;3.95;2.55;;;15.70;99.90;;;;;;5075699;28;20270;-72
2022/05/08 01:53:07;;;;;;;3.85;3.30;;;15.70;99.90;;;;;;5073404;28;20230;-73
2022/05/08 01:55:32;;;;;;;3.28;2.28;;;15.50;99.90;;;;;;5074746;28;20203;-73
2022/05/08 01:57:58;;;;;;;5.00;3.20;;;15.40;99.90;;;;;;5075234;28;20209;-73
2022/05/08 02:00:25;;;;;;;4.60;3.70;;;15.50;99.90;;;;;;5072791;28;20214;-72
2022/05/08 02:02:52;;;;;;;6.50;3.25;;;15.30;99.90;;;;;;5073306;28;20245;-73
2022/05/08 02:05:20;;;;;;;7.43;4.28;;;15.20;99.90;;;;;;5073963;28;20186;-73
2022/05/08 02:07:47;;;;;;;6.35;3.78;;;15.20;99.90;;;;;;5072703;28;20195;-73
2022/05/08 02:10:13;;;;;;;6.80;3.95;;;15.20;99.90;;;;;;5072924;28;20203;-73
2022/05/08 02:12:39;;;;;;;4.63;3.58;;;15.40;99.90;;;;;;5070841;28;20223;-73
2022/05/08 02:15:07;;;;;;;3.97;2.75;;;15.40;99.90;;;;;;5054239;28;20178;-72
2022/05/08 02:17:33;;;;;;;3.25;2.50;;;15.30;99.90;;;;;;5054828;28;20676;-73
2022/05/08 02:19:59;;;;;;;5.47;2.70;;;15.30;99.90;;;;;;5072280;28;20199;-73
2022/05/08 02:22:24;;;;;;;3.08;2.42;;;15.40;99.90;;;;;;5054807;28;20249;-72
2022/05/08 02:24:51;;;;;;;5.68;3.67;;;15.40;99.90;;;;;;5071375;28;20625;-73
2022/05/08 02:27:17;;;;;;;3.35;2.72;;;15.50;99.90;;;;;;5071957;28;20285;-73
2022/05/08 02:29:42;;;;;;;4.00;3.00;;;15.50;99.90;;;;;;5061048;28;20171;-73
2022/05/08 02:32:08;;;;;;;5.68;3.15;;;15.50;99.90;;;;;;5071180;28;20217;-73
2022/05/08 02:34:34;;;;;;;3.78;3.00;;;15.40;99.90;;;;;;5052821;28;20276;-73
2022/05/08 02:36:59;;;;;;;5.70;3.00;;;15.50;99.90;;;;;;5070768;28;20202;-73
2022/05/08 02:39:25;;;;;;;5.72;3.50;;;15.50;99.90;;;;;;5070166;28;20618;-72
2022/05/08 02:41:50;;;;;;;4.40;2.83;;;15.40;99.90;;;;;;5052828;28;20222;-73
2022/05/08 02:44:16;;;;;;;5.13;3.53;;;15.40;99.90;;;;;;5065781;28;20197;-72
2022/05/08 02:46:41;;;;;;;5.93;3.35;;;15.40;99.90;;;;;;5052505;28;20203;-73
2022/05/08 02:49:07;;;;;;;3.78;2.70;;;15.40;99.90;;;;;;5069976;28;20217;-73
2022/05/08 02:51:33;;;;;;;3.17;2.83;;;15.30;99.90;;;;;;5070350;28;20218;-72
2022/05/08 02:53:58;;;;;;;3.75;3.40;;;15.40;99.90;;;;;;5070478;28;20189;-73
2022/05/08 02:59:08;;;;;;;3.15;2.55;;;15.40;99.90;;;;;;5070782;28;20210;-73
2022/05/08 03:01:34;;;;;;;3.38;2.70;;;15.50;99.90;;;;;;5070029;28;20264;-72
2022/05/08 03:03:59;;;;;;;6.82;3.38;;;15.40;99.90;;;;;;5071993;28;20256;-73
2022/05/08 03:06:25;;;;;;;4.80;3.65;;;15.50;99.90;;;;;;5055315;28;20213;-73
2022/05/08 03:08:52;;;;;;;4.38;3.20;;;15.40;99.90;;;;;;5072428;28;20551;-73
2022/05/08 03:11:26;;;;;;;3.47;2.90;;;15.30;99.90;;;;;;5042148;28;990291;-73
2022/05/08 03:13:55;;;;;;;3.58;3.28;;;15.20;99.90;;;;;;5070479;28;20730;-73
2022/05/08 03:16:22;;;;;;;4.57;3.50;;;15.10;99.90;;;;;;5059737;28;20198;-72
2022/05/08 03:18:48;;;;;;;3.83;3.47;;;15.20;99.90;;;;;;5076159;28;20206;-73
2022/05/08 03:21:15;;;;;;;5.90;3.97;;;15.30;99.90;;;;;;5075110;28;20699;-73
2022/05/08 03:23:43;;;;;;;3.80;3.10;;;15.30;99.90;;;;;;5076294;28;20487;-73
2022/05/08 03:26:09;;;;;;;4.13;3.20;;;15.10;99.90;;;;;;5075675;28;20261;-73
2022/05/08 03:28:38;;;;;;;4.50;3.83;;;15.00;99.90;;;;;;5074800;28;20619;-72
2022/05/08 03:31:03;;;;;;;4.18;3.53;;;15.00;99.90;;;;;;5075573;28;20286;-73
2022/05/08 03:33:30;;;;;;;6.45;3.78;;;15.00;99.90;;;;;;5073691;28;20298;-73
2022/05/08 03:35:55;;;;;;;5.50;3.95;;;15.10;99.90;;;;;;5057796;28;20175;-73
2022/05/08 03:38:21;;;;;;;5.72;3.97;;;15.00;99.90;;;;;;5074976;28;20236;-71
2022/05/08 03:40:47;;;;;;;6.18;3.65;;;15.00;99.90;;;;;;5057162;28;20233;-73
2022/05/08 03:43:13;;;;;;;5.35;3.70;;;15.00;99.90;;;;;;5057181;28;20229;-73
2022/05/08 03:45:38;;;;;;;10.38;3.35;;;15.00;99.90;;;;;;5075342;28;20639;-72
2022/05/08 03:48:05;;;;;;;6.75;3.40;;;15.00;99.90;;;;;;5075168;28;20190;-72
2022/05/08 03:50:30;;;;;;;3.92;2.78;;;15.00;99.90;;;;;;5057782;28;20199;-72
2022/05/08 03:52:57;;;;;;;4.28;3.08;;;15.00;99.90;;;;;;5074878;28;20215;-72
2022/05/08 03:55:23;;;;;;;8.25;3.63;;;15.00;99.90;;;;;;5074865;28;20207;-72
2022/05/08 03:57:49;;;;;;;7.13;3.85;;;15.00;99.90;;;;;;5074284;28;20213;-72
2022/05/08 04:00:15;;;;;;;6.90;3.40;;;15.10;99.90;;;;;;5073588;28;20210;-72
2022/05/08 04:02:41;;;;;;;5.72;3.58;;;15.10;99.90;;;;;;5074574;28;20217;-72
2022/05/08 04:05:08;;;;;;;4.97;3.40;;;15.10;99.90;;;;;;5074071;28;20226;-72
2022/05/08 04:07:34;;;;;;;7.80;3.40;;;15.00;99.90;;;;;;5073914;28;20290;-72
2022/05/08 04:09:59;;;;;;;6.35;2.92;;;14.90;99.90;;;;;;5074778;28;20658;-72
2022/05/08 04:12:26;;;;;;;6.85;3.10;;;14.80;99.90;;;;;;5073094;28;20218;-72
2022/05/08 04:14:52;;;;;;;6.93;3.47;;;14.90;99.90;;;;;;5074597;28;20175;-72
2022/05/08 04:17:17;;;;;;;7.15;2.97;;;14.80;99.90;;;;;;5075800;28;20167;-72
2022/05/08 04:19:42;;;;;;;7.32;3.30;;;14.70;99.90;;;;;;5072223;28;20209;-72
2022/05/08 04:24:53;;;;;;;10.07;3.28;;;14.70;99.90;;;;;;5066635;28;20257;-73
2022/05/08 04:27:19;;;;;;;9.10;3.20;;;14.60;99.90;;;;;;5073782;28;20208;-72
2022/05/08 04:29:44;;;;;;;5.75;2.97;;;14.70;99.90;;;;;;5073505;28;20175;-72
2022/05/08 04:32:10;;;;;;;9.68;3.58;;;14.70;99.90;;;;;;5073496;28;20231;-72
2022/05/08 04:34:36;;;;;;;8.27;3.08;;;14.70;99.90;;;;;;5073560;28;20289;-72
2022/05/08 04:37:03;;;;;;;7.47;3.25;;;14.60;99.90;;;;;;5072369;28;20207;-72
2022/05/08 04:39:28;;;;;;;9.20;3.20;;;14.50;99.90;;;;;;5072685;28;20214;-72
2022/05/08 04:41:53;;;;;;;9.32;3.13;;;14.60;99.90;;;;;;5073773;28;20253;-72
2022/05/08 04:44:19;;;;;;;8.30;3.30;;;14.80;99.90;;;;;;5071774;28;20199;-72
2022/05/08 04:46:44;;;;;;;7.05;3.15;;;14.80;99.90;;;;;;5073408;28;20290;-72
2022/05/08 04:49:10;;;;;;;10.80;3.28;;;14.80;99.90;;;;;;5073231;28;20199;-72
2022/05/08 04:51:36;;;;;;;6.68;2.90;;;14.80;99.90;;;;;;5055665;28;20707;-72
2022/05/08 04:54:02;;;;;;;8.80;2.95;;;15.00;99.90;;;;;;5073266;28;20531;-72
2022/05/08 04:56:28;;;;;;;9.00;3.15;;;15.30;99.90;;;;;;5073535;28;20182;-72
2022/05/08 04:58:53;;;;;;;8.73;2.92;;;15.40;99.90;;;;;;5072235;28;20207;-72
2022/05/08 05:01:19;;;;;;;8.98;2.90;;;16.10;99.90;;;;;;5072032;28;20225;-72
2022/05/08 05:03:44;;;;;;;7.13;2.88;;;18.90;99.90;;;;;;5073369;28;20222;-72
2022/05/08 05:06:10;;;;;;;7.22;3.13;;;20.70;99.90;;;;;;5075067;28;20202;-72
2022/05/08 05:08:35;;;;;;;5.82;2.60;;;22.10;99.90;;;;;;5057055;28;20221;-73
2022/05/08 05:11:01;;;;;;;7.63;3.30;;;21.20;99.90;;;;;;5057060;28;20237;-73
2022/05/08 05:13:26;;;;;;;6.60;2.75;;;21.80;99.90;;;;;;5054767;22;20224;-75
2022/05/08 05:15:52;;;;;;;14.07;3.42;;;23.20;99.90;;;;;;5032362;28;20287;-75
2022/05/08 05:18:18;;;;;;;5.78;2.78;;;22.30;99.90;;;;;;5031526;28;20215;-76
2022/05/08 05:20:45;;;;;;;9.60;3.15;;;23.40;99.90;;;;;;5032843;28;20680;-75
2022/05/08 05:23:11;;;;;;;5.10;2.53;;;24.30;99.90;;;;;;5047270;28;20572;-73
2022/05/08 05:25:37;;;;;;;7.47;3.33;;;24.90;99.90;;;;;;5043645;28;20211;-74
2022/05/08 05:28:02;;;;;;;5.90;2.67;;;25.30;99.90;;;;;;5050019;28;20196;-73
2022/05/08 05:30:28;;;;;;;7.18;2.78;;;25.50;99.90;;;;;;5043687;28;20226;-73
2022/05/08 05:32:54;;;;;;;6.25;2.70;;;25.90;99.90;;;;;;5049823;28;20206;-73
2022/05/08 05:35:19;;;;;;;5.00;2.40;;;26.40;99.90;;;;;;5052482;28;20191;-74
2022/05/08 05:37:44;;;;;;;6.55;2.75;;;26.80;99.90;;;;;;5051256;28;20254;-73
2022/05/08 05:40:11;;;;;;;5.93;3.05;;;25.60;99.90;;;;;;5051222;28;20227;-73
2022/05/08 05:42:36;;;;;;;8.18;2.63;;;24.30;99.90;;;;;;5071412;28;20641;-73
2022/05/08 05:45:02;;;;;;;10.05;3.05;;;23.90;99.90;;;;;;5071561;28;20179;-73
2022/05/08 05:50:12;;;;;;;5.90;2.50;;;23.80;99.90;;;;;;5071259;28;20353;-73
2022/05/08 05:52:37;;;;;;;10.35;4.13;;;24.50;99.90;;;;;;5070947;28;20747;-73
2022/05/08 05:55:06;;;;;;;7.93;2.80;;;23.80;99.90;;;;;;5071408;28;20694;-73
2022/05/08 05:57:32;;;;;;;6.90;2.50;;;23.80;99.90;;;;;;5071176;28;20214;-73
2022/05/08 05:59:58;;;;;;;6.22;2.75;;;24.40;99.90;;;;;;5065457;28;20180;-73
2022/05/08 06:02:23;;;;;;;5.35;2.70;;;25.30;99.90;;;;;;5068215;28;20693;-73
2022/05/08 06:04:48;;;;;;;7.22;2.75;;;26.00;99.90;;;;;;5071098;28;20234;-73
2022/05/08 06:07:14;;;;;;;5.05;2.50;;;27.00;98.70;;;;;;5063496;28;20206;-74
2022/05/08 06:09:39;;;;;;;8.52;3.17;;;27.50;96.30;;;;;;5069569;28;20683;-74
2022/05/08 06:12:05;;;;;;;6.18;2.55;;;27.10;95.50;;;;;;5064719;28;20207;-73
2022/05/08 06:14:31;;;;;;;8.82;3.33;;;28.00;94.20;;;;;;5069497;28;20186;-74
2022/05/08 06:16:57;;;;;;;5.53;2.58;;;28.40;93.00;;;;;;5066090;28;20203;-74
2022/05/08 06:19:22;;;;;;;6.88;3.03;;;28.00;92.60;;;;;;5067107;28;20206;-73
2022/05/08 06:21:48;;;;;;;8.52;3.00;;;26.50;92.50;;;;;;5052880;28;20602;-71
2022/05/08 06:24:14;;;;;;;8.60;3.17;;;25.50;94.20;;;;;;5053014;28;20207;-73
2022/05/08 06:26:39;;;;;;;7.55;2.47;;;24.90;96.20;;;;;;5071268;28;20820;-73
2022/05/08 06:29:05;;;;;;;8.43;3.40;;;25.60;96.20;;;;;;5069950;28;20195;-74
2022/05/08 06:31:30;;;;;;;8.77;3.88;;;25.00;95.80;;;;;;5062316;28;20203;-73
2022/05/08 06:33:56;;;;;;;7.63;3.38;;;25.10;96.00;;;;;;5070773;28;20206;-74
2022/05/08 06:36:22;;;;;;;7.95;3.10;;;26.00;95.30;;;;;;5062192;28;20291;-74
2022/05/08 06:38:47;;;;;;;8.95;3.40;;;26.70;94.80;;;;;;5070119;28;20186;-73
2022/05/08 06:41:13;;;;;;;9.02;3.53;;;27.00;93.80;;;;;;5064004;28;20301;-73
2022/05/08 06:43:40;;;;;;;7.32;2.97;;;27.20;92.40;;;;;;5062192;28;20617;-73
2022/05/08 06:46:07;;;;;;;9.35;3.15;;;26.30;93.70;;;;;;5060415;28;20227;-74
2022/05/08 06:48:32;;;;;;;8.25;3.53;;;27.10;94.70;;;;;;5070693;28;20335;-73
2022/05/08 06:50:58;;;;;;;6.18;2.88;;;27.40;93.10;;;;;;5062838;28;20723;-73
2022/05/08 06:53:24;;;;;;;8.02;3.30;;;27.80;93.20;;;;;;5045818;28;20183;-74
2022/05/08 06:55:49;;;;;;;13.25;3.90;;;28.50;91.60;;;;;;5070602;28;20561;-74
2022/05/08 06:58:15;;;;;;;8.18;3.42;;;28.60;91.10;;;;;;5069662;28;20195;-74
2022/05/08 07:03:24;;;;;;;8.23;3.78;;;29.00;90.40;;;;;;5073736;28;20819;-73
2022/05/08 07:05:50;;;;;;;7.35;4.03;;;30.50;89.20;;;;;;5070424;28;20266;-74
2022/05/08 07:08:15;;;;;;;8.02;3.60;;;30.10;88.20;;;;;;5044620;28;20194;-74
2022/05/08 07:10:42;;;;;;;9.55;3.55;;;30.30;87.50;;;;;;5065281;28;20229;-74
2022/05/08 07:13:07;;;;;;;5.75;3.38;;;30.00;86.00;;;;;;5067687;28;20219;-74
2022/05/08 07:15:33;;;;;;;7.45;3.60;;;30.40;86.50;;;;;;5072269;28;20218;-73
2022/05/08 07:17:58;;;;;;;7.47;3.55;;;31.40;84.60;;;;;;5047394;28;20179;-73
2022/05/08 07:20:24;;;;;;;7.68;3.28;;;31.50;83.20;;;;;;5074439;28;20296;-74
2022/05/08 07:22:49;;;;;;;9.07;3.40;;;31.60;82.00;;;;;;5073992;28;20275;-74
2022/05/08 07:25:15;;;;;;;6.35;3.10;;;32.10;80.50;;;;;;5073110;28;20206;-74
2022/05/08 07:27:42;;;;;;;7.28;3.50;;;32.20;78.80;;;;;;5065372;28;20213;-73
2022/05/08 07:30:08;;;;;;;9.23;3.65;;;32.80;76.90;;;;;;5041074;28;20206;-74
2022/05/08 07:32:35;;;;;;;7.18;3.65;;;32.10;76.20;;;;;;5072294;28;20213;-75
2022/05/08 07:37:44;;;;;;;10.00;3.72;;;30.90;77.30;;;;;;5073175;28;20210;-74
2022/05/08 07:40:13;;;;;;;7.20;3.05;;;30.90;76.70;;;;;;5055218;28;20198;-76
2022/05/08 07:42:39;;;;;;;9.50;3.35;;;30.70;76.70;;;;;;5065160;28;20596;-76
2022/05/08 07:45:06;;;;;;;9.85;3.58;;;30.70;75.80;;;;;;5055496;28;20267;-76
2022/05/08 07:47:31;;;;;;;8.20;3.15;;;30.90;74.00;;;;;;5073933;28;20190;-76
2022/05/08 07:49:57;;;;;;;9.15;3.42;;;30.80;73.20;;;;;;5047081;28;20244;-77
2022/05/08 07:52:23;;;;;;;8.45;3.58;;;30.80;75.10;;;;;;5055983;28;20203;-76
2022/05/08 07:54:49;;;;;;;7.85;3.05;;;30.20;72.50;;;;;;5073175;28;20230;-75
2022/05/08 07:57:15;;;;;;;9.82;3.33;;;29.90;72.80;;;;;;5073472;28;20222;-76
2022/05/08 07:59:40;;;;;;;8.23;2.50;;;30.10;72.60;;;;;;5047160;28;20187;-76
2022/05/08 08:02:07;;;;;;;8.57;3.30;;;29.80;71.60;;;;;;5072837;28;20950;-76
2022/05/08 08:04:34;;;;;;;6.18;2.92;;;30.00;73.20;;;;;;5073213;28;20218;-77
2022/05/08 08:07:00;;;;;;;9.15;3.33;;;30.60;71.10;;;;;;5059571;28;20199;-76
2022/05/08 08:09:26;;;;;;;8.75;3.70;;;30.70;70.20;;;;;;5043693;28;20563;-76
2022/05/08 08:11:53;;;;;;;7.15;3.22;;;30.60;70.90;;;;;;5055076;28;20217;-76
2022/05/08 08:14:19;;;;;;;11.95;3.90;;;30.30;71.70;;;;;;5073797;28;20607;-77
2022/05/08 08:16:45;;;;;;;11.35;5.35;;;31.10;72.20;;;;;;5064598;28;20230;-76
2022/05/08 08:19:11;;;;;;;8.55;3.88;;;31.50;71.70;;;;;;5054380;28;20226;-76
2022/05/08 08:21:36;;;;;;;8.20;4.03;;;30.90;70.70;;;;;;5064528;28;20239;-76
2022/05/08 08:24:02;;;;;;;7.82;3.53;;;30.40;71.60;;;;;;5073324;28;20171;-76
2022/05/08 08:26:27;;;;;;;11.40;4.93;;;29.60;73.00;;;;;;5056761;28;20184;-76
2022/05/08 08:28:53;;;;;;;9.35;4.28;;;30.00;73.90;;;;;;5063837;28;20698;-76
2022/05/08 08:31:19;;;;;;;11.25;3.97;;;29.80;75.00;;;;;;5064953;28;20241;-76
2022/05/08 08:33:45;;;;;;;7.65;3.97;;;29.70;75.00;;;;;;5072384;28;20214;-76
2022/05/08 08:36:11;;;;;;;7.68;3.88;;;30.10;75.90;;;;;;5064602;28;20205;-76
2022/05/08 08:38:38;;;;;;;9.77;3.60;;;30.10;75.40;;;;;;5046482;28;20240;-77
2022/05/08 08:41:05;;;;;;;8.18;3.70;;;30.00;75.30;;;;;;5046634;28;20203;-76
2022/05/08 08:47:42;;;;;;;9.13;4.53;;;28.20;77.20;;;;;;5070681;28;20236;-75
2022/05/08 08:49:21;;;;;;;10.02;4.28;;;27.10;82.80;;;;;;5066674;28;20277;-76
2022/05/08 08:51:48;;;;;;;11.32;4.07;;;27.50;81.80;;;;;;5064079;28;20260;-75
2022/05/08 08:54:15;;;;;;;9.65;3.63;;;28.00;81.80;;;;;;5064044;28;20289;-75
2022/05/08 08:56:41;;;;;;;14.48;3.70;;;28.40;81.80;;;;;;5072761;28;20215;-77
2022/05/08 08:59:06;;;;;;;8.35;3.58;;;28.80;79.80;;;;;;5045554;28;20229;-76
2022/05/08 09:01:38;;;;;;;10.45;3.15;;;28.00;80.10;;;;;;5063393;28;20214;-76
2022/05/08 09:04:04;;;;;;;7.60;3.22;;;28.10;81.10;;;;;;5072231;28;20570;-76
2022/05/08 09:06:38;;;;;;;7.88;3.50;;;28.30;81.50;;;;;;5052064;28;20199;-76
2022/05/08 09:09:23;;;;;;;6.28;2.70;;;29.10;80.50;;;;;;5047950;28;20213;-76
2022/05/08 09:11:49;;;;;;;5.18;2.78;;;29.20;78.90;;;;;;5064236;28;20620;-76
2022/05/08 09:14:28;;;;;;;6.85;2.55;;;28.80;79.30;;;;;;5054593;28;20174;-76
2022/05/08 09:16:54;;;;;;;5.95;2.60;;;28.80;78.80;;;;;;5064714;28;20709;-76
2022/05/08 09:19:39;;;;;;;15.35;3.40;;;28.40;77.80;;;;;;5063047;28;20298;-76
2022/05/08 09:22:06;;;;;;;7.22;2.55;;;28.20;79.50;;;;;;5053493;28;20297;-76
2022/05/08 09:24:33;;;;;;;6.50;2.50;;;28.50;79.70;;;;;;5063368;28;20728;-76
2022/05/08 09:27:16;;;;;;;7.55;2.80;;;28.50;79.30;;;;;;5072021;28;20232;-76
2022/05/08 09:29:42;;;;;;;10.18;3.47;;;27.70;80.40;;;;;;5045593;28;20187;-77
2022/05/08 09:32:09;;;;;;;9.48;2.42;;;27.30;82.10;;;;;;5071407;28;20312;-77
2022/05/08 09:34:59;;;;;;;5.40;2.38;;;26.60;79.40;;;;;;5071678;28;20298;-77
2022/05/08 09:37:25;;;;;;;6.50;2.30;;;26.70;79.60;;;;;;5053335;28;20210;-76
2022/05/08 09:39:51;;;;;;;7.65;2.55;;;26.70;79.90;;;;;;5053142;28;20207;-77
2022/05/08 09:42:36;;;;;;;6.93;2.40;;;26.70;79.70;;;;;;5063153;28;20215;-77
2022/05/08 09:45:07;;;;;;;7.28;2.40;;;26.30;81.00;;;;;;5071430;28;20687;-77
2022/05/08 09:47:47;;;;;;;10.77;3.95;;;25.80;78.70;;;;;;5045807;28;20238;-76
2022/05/08 09:50:14;;;;;;;7.05;2.65;;;25.10;81.60;;;;;;5053256;28;20214;-77
2022/05/08 09:52:42;;;;;;;9.70;3.17;;;24.80;83.20;;;;;;5050643;28;20263;-76
2022/05/08 09:55:08;;;;;;;5.57;2.20;;;25.20;83.40;;;;;;5048205;28;20199;-76
2022/05/08 09:57:35;;;;;;;7.03;2.92;;;25.30;81.40;;;;;;5062712;28;20301;-77
2022/05/08 10:00:02;;;;;;;7.00;2.22;;;25.10;78.20;;;;;;5065455;28;20171;-77
2022/05/08 10:02:28;;;;;;;10.43;3.22;;;24.40;77.60;;;;;;5050826;28;20579;-76
2022/05/08 10:04:54;;;;;;;7.07;1.95;;;24.40;79.70;;;;;;5053298;28;20286;-77
2022/05/08 10:07:23;;;;;;;7.20;2.53;;;24.20;80.80;;;;;;5071172;28;20294;-77
2022/05/08 10:15:33;;;;;;;9.75;2.72;;;24.30;82.80;;;;;;5067242;28;20290;-77
2022/05/08 10:18:23;;;;;;;7.75;2.65;;;24.90;81.00;;;;;;5046082;28;20173;-75
2022/05/08 10:21:08;;;;;;;8.02;2.47;;;25.00;80.20;;;;;;5071025;28;20655;-76
2022/05/08 10:23:39;;;;;;;8.88;2.50;;;24.80;79.90;;;;;;5071140;28;20210;-76
2022/05/08 10:26:23;;;;;;;6.68;2.78;;;24.80;79.80;;;;;;5061304;28;20206;-76
2022/05/08 10:29:12;;;;;;;6.47;2.45;;;24.20;77.40;;;;;;5070322;28;20199;-77
2022/05/08 10:31:42;;;;;;;8.52;2.60;;;23.40;80.40;;;;;;5052329;28;20231;-76
2022/05/08 10:34:08;;;;;;;7.47;2.80;;;22.70;83.80;;;;;;5046313;28;20203;-76
2022/05/08 10:36:34;;;;;;;6.07;3.08;;;23.10;85.30;;;;;;5068874;28;20294;-77
2022/05/08 10:39:43;;;;;;;12.95;3.92;;;23.80;85.00;;;;;;5044144;28;20258;-77
2022/05/08 10:42:29;;;;;;;9.93;2.63;;;23.50;83.20;;;;;;5047388;28;20291;-77
2022/05/08 10:44:56;;;;;;;6.18;2.20;;;23.00;82.80;;;;;;5052700;28;20171;-77
2022/05/08 10:47:42;;;;;;;8.73;2.47;;;23.30;83.70;;;;;;5062857;28;20183;-76
2022/05/08 10:50:13;;;;;;;7.60;2.97;;;23.20;84.50;;;;;;5062106;28;20207;-76
2022/05/08 10:52:43;;;;;;;7.22;2.60;;;23.50;84.00;;;;;;5044342;28;20605;-77
2022/05/08 10:55:15;;;;;;;10.45;4.68;;;23.70;81.20;;;;;;5062234;28;20206;-77
2022/05/08 10:57:41;;;;;;;8.15;2.38;;;23.80;83.50;;;;;;5043735;28;20950;-76
2022/05/08 11:00:10;;;;;;;7.18;2.85;;;24.20;79.30;;;;;;5043987;28;20578;-77
2022/05/08 11:02:40;;;;;;;4.45;1.80;;;23.60;78.60;;;;;;5070283;28;20288;-76
2022/05/08 11:05:07;;;;;;;8.55;2.25;;;23.60;80.40;;;;;;5052515;28;20199;-77
2022/05/08 11:07:33;;;;;;;7.00;2.33;;;23.40;80.10;;;;;;5068025;28;20301;-76
2022/05/08 11:09:59;;;;;;;5.40;2.55;;;23.40;80.60;;;;;;5045308;28;20646;-77
2022/05/08 11:12:25;;;;;;;6.78;2.63;;;23.20;80.90;;;;;;5069597;28;20218;-76
2022/05/08 11:14:50;;;;;;;6.88;2.42;;;23.30;81.50;;;;;;5051201;23;20258;-73
2022/05/08 11:17:17;;;;;;;12.23;4.30;;;23.00;81.60;;;;;;5031987;28;20281;-73
2022/05/08 11:19:52;;;;;;;7.90;2.58;;;22.90;83.30;;;;;;5030739;28;20336;-73
2022/05/08 11:22:18;;;;;;;7.72;2.70;;;23.20;83.90;;;;;;5013997;28;20648;-73
2022/05/08 11:24:47;;;;;;;6.63;3.33;;;22.80;83.00;;;;;;5031179;28;20204;-73
2022/05/08 11:27:13;;;;;;;8.35;2.40;;;23.00;85.10;;;;;;5031542;28;20200;-73
2022/05/08 11:29:45;;;;;;;7.55;2.90;;;23.20;83.30;;;;;;5030326;28;20173;-73
2022/05/08 11:38:03;;;;;;;4.93;1.70;;;23.40;76.90;;;;;;5031103;28;20704;-72
2022/05/08 11:40:30;;;;;;;4.78;2.10;;;23.60;74.90;;;;;;5033021;28;20207;-72
2022/05/08 11:42:55;;;;;;;5.72;2.70;;;23.60;73.50;;;;;;5034904;28;20713;-73
2022/05/08 11:45:21;;;;;;;4.78;2.20;;;23.50;72.80;;;;;;5034958;28;20212;-72
2022/05/08 11:47:50;;;;;;;4.78;2.20;;;23.50;72.70;;;;;;5035216;28;20184;-72
2022/05/08 11:50:16;;;;;;;5.00;2.22;;;23.00;73.30;;;;;;5036663;28;20164;-73
2022/05/08 11:52:41;;;;;;;5.40;1.90;;;22.10;73.40;;;;;;5035658;28;20207;-73
2022/05/08 11:55:08;;;;;;;5.90;1.55;;;22.00;74.20;;;;;;5036071;28;20215;-72
2022/05/08 11:57:44;;;;;;;7.65;2.88;;;22.00;74.90;;;;;;5035042;28;20213;-72
2022/05/08 12:00:12;;;;;;;7.20;2.60;;;22.40;75.10;;;;;;5017234;28;20200;-72
2022/05/08 12:02:52;;;;;;;8.38;3.25;;;22.10;75.60;;;;;;5034857;28;20207;-73
2022/05/08 12:05:22;;;;;;;6.15;2.45;;;22.50;74.80;;;;;;5019563;28;20211;-72
2022/05/08 12:07:48;;;;;;;4.55;2.10;;;22.60;73.00;;;;;;5029191;28;20207;-73
2022/05/08 12:10:15;;;;;;;3.83;2.10;;;22.70;72.20;;;;;;5034605;28;20561;-73
2022/05/08 12:12:41;;;;;;;6.03;1.70;;;22.70;73.10;;;;;;5035880;28;20220;-73
2022/05/08 12:15:06;;;;;;;3.53;1.50;;;22.50;70.30;;;;;;5017614;28;20220;-73
2022/05/08 12:17:44;;;;;;;5.63;2.03;;;22.70;70.30;;;;;;5017956;28;20195;-73
2022/05/08 12:20:39;;;;;;;5.38;2.17;;;22.80;69.10;;;;;;5016786;28;20204;-72
2022/05/08 12:23:07;;;;;;;5.57;2.10;;;22.90;71.00;;;;;;5034105;28;20213;-73
2022/05/08 12:25:34;;;;;;;6.50;2.47;;;22.70;68.90;;;;;;5016967;28;20627;-73
2022/05/08 12:28:00;;;;;;;5.47;1.90;;;22.30;69.10;;;;;;5034082;28;20219;-72
2022/05/08 12:30:26;;;;;;;5.18;1.90;;;21.60;69.80;;;;;;5016749;28;20254;-72
2022/05/08 12:32:51;;;;;;;5.47;2.25;;;21.30;70.40;;;;;;5016548;28;20176;-73
2022/05/08 12:35:19;;;;;;;5.60;2.22;;;21.80;72.20;;;;;;5035068;28;20696;-73
2022/05/08 12:37:47;;;;;;;5.70;2.15;;;21.90;71.60;;;;;;5034135;28;20216;-72
2022/05/08 12:40:14;;;;;;;8.55;3.45;;;22.20;72.30;;;;;;5033568;28;20212;-72
2022/05/08 12:42:40;;;;;;;4.93;2.13;;;22.10;70.90;;;;;;5033180;28;20386;-72
2022/05/08 12:45:06;;;;;;;6.18;2.00;;;21.90;71.10;;;;;;5016808;28;20224;-72
2022/05/08 12:47:32;;;;;;;5.45;2.00;;;21.90;70.80;;;;;;5034751;28;20243;-73
2022/05/08 12:49:58;;;;;;;7.78;2.40;;;22.20;71.20;;;;;;5033620;28;20236;-72
2022/05/08 12:52:23;;;;;;;4.40;1.80;;;22.20;71.40;;;;;;5034591;28;20673;-72
2022/05/08 12:54:49;;;;;;;7.78;2.05;;;22.10;70.10;;;;;;5016463;28;20223;-73
2022/05/08 12:59:59;;;;;;;7.25;2.10;;;21.90;68.40;;;;;;5034366;28;20664;-73
2022/05/08 13:02:26;;;;;;;5.22;1.73;;;21.90;69.10;;;;;;5034287;28;20204;-72
2022/05/08 13:04:53;;;;;;;9.20;2.90;;;21.90;68.10;;;;;;5034425;28;20204;-73
2022/05/08 13:07:19;;;;;;;5.35;2.10;;;21.90;68.70;;;;;;5034809;28;20585;-73
2022/05/08 13:09:44;;;;;;;3.78;1.52;;;21.80;66.70;;;;;;5031921;28;20228;-73
2022/05/08 13:12:10;;;;;;;6.32;2.03;;;21.70;66.60;;;;;;5021174;28;20203;-72
2022/05/08 13:14:36;;;;;;;5.90;2.47;;;21.80;65.90;;;;;;5016203;28;20226;-73
2022/05/08 13:17:03;;;;;;;4.85;1.75;;;21.80;65.90;;;;;;5034177;28;20200;-72
2022/05/08 13:19:29;;;;;;;5.53;1.75;;;21.80;66.80;;;;;;5015120;28;20197;-72